Hutton, Maryland
Current Conditions -  °F | °C
As of 12:15 AM on Saturday 29 Nov 2014 (Local Time) from K2G4 Reporting Station
Overcast Overcast  
Wind Chill: 11°   Ceiling: 6500
Heat Index: 21°   Visibility: 10mi
Dew Point: 19°   Wind: 9mph
Humidity: 93%   Direction: 190°S
Pressure: 30.09"   Gusts: NA
Location:  39.3804°N, 79.3888°W
Report Text: K2G4 290515Z AUTO 19008KT 10SM BKN065 OVC100 M06/M07 A3009 RMK AO1
Loading
Personal Weather Stations






























Interactive Weather Map New forecast layout! Learn more

10-Day Weather Forecast

Advertisements
Track Severe Weather on mobile